createdAt,value
2019-03-27T00:01:26.896Z,102440.61
2019-03-27T00:03:52.676Z,102435.50
2019-03-27T00:06:18.467Z,102441.59
2019-03-27T00:08:44.254Z,102436.95
2019-03-27T00:11:10.047Z,102438.44
2019-03-27T00:13:35.824Z,102433.28
2019-03-27T00:16:01.612Z,102438.77
2019-03-27T00:18:27.396Z,102447.39
2019-03-27T00:20:53.321Z,102431.25
2019-03-27T00:23:19.111Z,102433.79
2019-03-27T00:25:45.015Z,102432.81
2019-03-27T00:28:10.798Z,102432.81
2019-03-27T00:30:36.597Z,102431.61
2019-03-27T00:33:02.373Z,102431.47
2019-03-27T00:35:28.160Z,102432.70
2019-03-27T00:37:53.940Z,102427.59
2019-03-27T00:40:19.723Z,102423.93
2019-03-27T00:42:45.520Z,102428.28
2019-03-27T00:45:11.420Z,102429.19
2019-03-27T00:47:37.198Z,102417.94
2019-03-27T00:50:07.376Z,102424.58
2019-03-27T00:52:33.170Z,102423.27
2019-03-27T00:54:58.954Z,102419.91
2019-03-27T00:57:24.749Z,102417.47
2019-03-27T00:59:50.521Z,102424.07
2019-03-27T01:02:16.374Z,102421.13
2019-03-27T01:04:42.091Z,102426.61
2019-03-27T01:07:07.886Z,102418.30
2019-03-27T01:09:33.668Z,102412.53
2019-03-27T01:11:59.659Z,102418.05
2019-03-27T01:14:25.444Z,102414.42
2019-03-27T01:16:51.240Z,102415.88
2019-03-27T01:19:17.018Z,102416.59
2019-03-27T01:21:42.808Z,102414.78
2019-03-27T01:24:08.599Z,102413.88
2019-03-27T01:26:34.395Z,102414.05
2019-03-27T01:29:00.173Z,102410.75
2019-03-27T01:31:25.963Z,102413.30
2019-03-27T01:33:51.741Z,102409.99
2019-03-27T01:36:17.536Z,102407.16
2019-03-27T01:38:43.320Z,102413.25
2019-03-27T01:41:09.103Z,102412.38
2019-03-27T01:43:34.895Z,102415.11
2019-03-27T01:46:00.677Z,102417.86
2019-03-27T01:48:26.464Z,102414.59
2019-03-27T01:50:52.259Z,102409.91
2019-03-27T01:53:18.060Z,102408.56
2019-03-27T01:55:43.834Z,102408.56
2019-03-27T01:58:09.632Z,102415.64
2019-03-27T02:00:35.413Z,102420.65
2019-03-27T02:03:01.203Z,102417.61
2019-03-27T02:05:26.989Z,102413.83
2019-03-27T02:07:52.797Z,102410.67
2019-03-27T02:10:18.571Z,102409.33
2019-03-27T02:12:44.361Z,102415.47
2019-03-27T02:15:10.455Z,102404.36
2019-03-27T02:17:36.252Z,102404.36
2019-03-27T02:20:03.835Z,102409.84
2019-03-27T02:22:29.650Z,102406.43
2019-03-27T02:24:55.424Z,102412.85
2019-03-27T02:27:21.211Z,102405.78
2019-03-27T02:29:46.992Z,102403.55
2019-03-27T02:32:12.785Z,102404.00
2019-03-27T02:34:38.560Z,102399.21
2019-03-27T02:37:04.363Z,102403.81
2019-03-27T02:39:30.138Z,102399.72
2019-03-27T02:41:55.937Z,102396.16
2019-03-27T02:44:21.705Z,102392.03
2019-03-27T02:46:47.475Z,102391.92
2019-03-27T02:49:13.269Z,102393.52
2019-03-27T02:51:39.049Z,102383.72
2019-03-27T02:54:04.841Z,102384.70
2019-03-27T02:56:30.619Z,102387.70
2019-03-27T02:58:56.416Z,102378.56
2019-03-27T03:01:22.188Z,102381.30
2019-03-27T03:03:47.980Z,102385.20
2019-03-27T03:06:13.759Z,102390.88
2019-03-27T03:08:39.547Z,102385.11
2019-03-27T03:11:05.325Z,102385.87
2019-03-27T03:13:31.116Z,102380.40
2019-03-27T03:15:56.899Z,102379.02
2019-03-27T03:18:22.682Z,102385.66
2019-03-27T03:20:48.455Z,102397.27
2019-03-27T03:23:14.267Z,102394.69
2019-03-27T03:25:40.048Z,102386.45
2019-03-27T03:28:05.847Z,102389.32
2019-03-27T03:30:31.633Z,102383.59
2019-03-27T03:32:57.446Z,102391.39
2019-03-27T03:35:23.222Z,102388.70
2019-03-27T03:37:49.006Z,102384.47
2019-03-27T03:40:15.194Z,102384.31
2019-03-27T03:42:41.073Z,102383.70
2019-03-27T03:45:06.969Z,102390.56
2019-03-27T03:47:32.750Z,102390.20
2019-03-27T03:49:58.553Z,102389.44
2019-03-27T03:52:24.338Z,102390.16
2019-03-27T03:54:51.523Z,102392.16
2019-03-27T03:57:18.210Z,102398.68
2019-03-27T03:59:44.107Z,102401.44
2019-03-27T04:02:10.991Z,102402.17
2019-03-27T04:04:38.688Z,102399.41
2019-03-27T04:07:04.476Z,102391.83
2019-03-27T04:09:30.263Z,102382.80
2019-03-27T04:11:56.047Z,102383.92
2019-03-27T04:14:21.849Z,102393.31
2019-03-27T04:16:47.635Z,102395.67
2019-03-27T04:19:13.431Z,102399.16
2019-03-27T04:21:39.226Z,102399.66
2019-03-27T04:24:05.043Z,102401.62
2019-03-27T04:26:33.525Z,102405.91
2019-03-27T04:28:58.515Z,102415.58
2019-03-27T04:31:24.322Z,102422.98
2019-03-27T04:33:50.108Z,102424.58
2019-03-27T04:36:15.905Z,102428.82
2019-03-27T04:38:41.696Z,102429.94
2019-03-27T04:41:07.462Z,102433.42
2019-03-27T04:43:33.244Z,102434.91
2019-03-27T04:45:59.035Z,102431.61
2019-03-27T04:48:24.812Z,102430.52
2019-03-27T04:50:50.603Z,102427.19
2019-03-27T04:53:16.394Z,102408.14
2019-03-27T04:55:42.178Z,102428.31
2019-03-27T04:58:07.967Z,102425.16
2019-03-27T05:00:33.758Z,102427.84
2019-03-27T05:02:59.538Z,102432.23
2019-03-27T05:05:25.327Z,102429.44
2019-03-27T05:07:51.114Z,102435.16
2019-03-27T05:10:16.903Z,102440.75
2019-03-27T05:12:42.676Z,102436.03
2019-03-27T05:15:08.550Z,102436.98
2019-03-27T05:17:45.210Z,102445.53
2019-03-27T05:20:04.827Z,102439.41
2019-03-27T05:22:30.644Z,102439.16
2019-03-27T05:24:56.427Z,102441.08
2019-03-27T05:27:22.227Z,102452.18
2019-03-27T05:29:48.002Z,102444.97
2019-03-27T05:32:13.789Z,102449.25
2019-03-27T05:34:39.574Z,102443.87
2019-03-27T05:37:05.378Z,102441.92
2019-03-27T05:39:31.150Z,102435.42
2019-03-27T05:41:56.947Z,102438.25
2019-03-27T05:44:22.729Z,102437.75
2019-03-27T05:46:48.518Z,102449.80
2019-03-27T05:49:14.295Z,102444.79
2019-03-27T05:51:40.083Z,102439.42
2019-03-27T05:54:05.868Z,102437.67
2019-03-27T05:56:31.663Z,102444.89
2019-03-27T05:58:57.446Z,102438.00
2019-03-27T06:01:23.251Z,102442.39
2019-03-27T06:03:49.030Z,102436.55
2019-03-27T06:06:14.850Z,102438.83
2019-03-27T06:08:40.628Z,102436.72
2019-03-27T06:11:06.415Z,102441.69
2019-03-27T06:13:32.214Z,102439.98
2019-03-27T06:15:57.992Z,102434.25
2019-03-27T06:18:23.788Z,102434.81
2019-03-27T06:20:49.573Z,102432.12
2019-03-27T06:23:15.375Z,102434.88
2019-03-27T06:25:41.151Z,102437.36
2019-03-27T06:28:06.948Z,102446.13
2019-03-27T06:30:32.724Z,102448.31
2019-03-27T06:32:58.519Z,102447.33
2019-03-27T06:35:24.307Z,102448.22
2019-03-27T06:37:50.109Z,102446.87
2019-03-27T06:40:15.888Z,102446.25
2019-03-27T06:42:41.677Z,102457.37
2019-03-27T06:45:08.102Z,102449.41
2019-03-27T06:47:33.861Z,102455.14
2019-03-27T06:49:59.637Z,102449.50
2019-03-27T06:52:25.431Z,102453.17
2019-03-27T06:54:51.212Z,102451.63
2019-03-27T06:57:17.006Z,102456.02
2019-03-27T06:59:42.787Z,102452.56
2019-03-27T07:02:08.670Z,102451.77
2019-03-27T07:04:34.486Z,102437.50
2019-03-27T07:07:00.260Z,102437.50
2019-03-27T07:09:26.057Z,102440.96
2019-03-27T07:11:51.839Z,102439.38
2019-03-27T07:14:17.631Z,102442.48
2019-03-27T07:16:43.408Z,102438.89
2019-03-27T07:19:09.210Z,102437.58
2019-03-27T07:21:34.994Z,102439.91
2019-03-27T07:24:00.805Z,102438.56
2019-03-27T07:26:26.581Z,102434.53
2019-03-27T07:28:52.380Z,102438.84
2019-03-27T07:31:18.154Z,102430.14
2019-03-27T07:33:43.958Z,102429.97
2019-03-27T07:36:09.740Z,102434.64
2019-03-27T07:38:35.529Z,102438.80
2019-03-27T07:41:01.320Z,102442.72
2019-03-27T07:43:27.119Z,102434.89
2019-03-27T07:45:52.904Z,102447.11
2019-03-27T07:48:18.685Z,102449.86
2019-03-27T07:50:44.476Z,102450.87
2019-03-27T07:53:10.266Z,102455.07
2019-03-27T07:55:36.093Z,102455.07
2019-03-27T07:58:01.867Z,102461.54
2019-03-27T08:00:27.667Z,102451.44
2019-03-27T08:02:53.454Z,102461.55
2019-03-27T08:05:19.269Z,102463.19
2019-03-27T08:07:45.036Z,102456.61
2019-03-27T08:10:10.934Z,102455.77
2019-03-27T08:12:36.715Z,102454.14
2019-03-27T08:15:06.013Z,102462.06
2019-03-27T08:17:32.103Z,102456.11
2019-03-27T08:19:57.910Z,102456.11
2019-03-27T08:22:23.708Z,102463.55
2019-03-27T08:24:49.495Z,102471.27
2019-03-27T08:27:15.293Z,102466.28
2019-03-27T08:29:41.110Z,102470.84
2019-03-27T08:32:06.887Z,102464.30
2019-03-27T08:34:32.699Z,102467.35
2019-03-27T08:36:58.489Z,102473.89
2019-03-27T08:39:24.266Z,102473.05
2019-03-27T08:41:50.064Z,102474.47
2019-03-27T08:44:15.841Z,102469.52
2019-03-27T08:46:41.643Z,102474.20
2019-03-27T08:49:20.796Z,102482.84
2019-03-27T08:51:35.114Z,102482.39
2019-03-27T08:54:00.905Z,102481.64
2019-03-27T08:56:26.710Z,102485.52
2019-03-27T08:58:52.592Z,102484.10
2019-03-27T09:01:18.491Z,102488.55
2019-03-27T09:03:44.264Z,102492.45
2019-03-27T09:06:10.051Z,102493.88
2019-03-27T09:08:35.836Z,102490.32
2019-03-27T09:11:04.479Z,102497.25
2019-03-27T09:13:29.312Z,102496.70
2019-03-27T09:15:55.102Z,102496.70
2019-03-27T09:18:20.956Z,102493.30
2019-03-27T09:20:46.810Z,102494.64
2019-03-27T09:23:12.603Z,102497.56
2019-03-27T09:25:38.398Z,102495.51
2019-03-27T09:28:04.298Z,102497.53
2019-03-27T09:30:30.197Z,102497.53
2019-03-27T09:32:55.988Z,102500.10
2019-03-27T09:35:21.776Z,102499.47
2019-03-27T09:37:47.569Z,102495.55
2019-03-27T09:40:15.059Z,102497.04
2019-03-27T09:42:40.867Z,102489.82
2019-03-27T09:45:07.645Z,102492.45
2019-03-27T09:47:34.785Z,102496.19
2019-03-27T09:50:00.692Z,102487.47
2019-03-27T09:52:26.491Z,102487.47
2019-03-27T09:54:52.268Z,102487.83
2019-03-27T09:57:18.072Z,102495.78
2019-03-27T09:59:43.851Z,102499.33
2019-03-27T10:02:09.652Z,102494.03
2019-03-27T10:04:35.437Z,102493.12
2019-03-27T10:07:01.318Z,102499.44
2019-03-27T10:09:27.123Z,102502.59
2019-03-27T10:11:52.911Z,102494.97
2019-03-27T10:14:18.702Z,102496.28
2019-03-27T10:16:44.483Z,102496.91
2019-03-27T10:19:10.280Z,102489.73
2019-03-27T10:21:36.058Z,102495.04
2019-03-27T10:24:01.871Z,102495.84
2019-03-27T10:26:27.652Z,102498.20
2019-03-27T10:28:53.455Z,102488.31
2019-03-27T10:31:19.468Z,102497.98
2019-03-27T10:33:45.277Z,102494.20
2019-03-27T10:36:11.061Z,102494.34
2019-03-27T10:38:36.860Z,102502.02
2019-03-27T10:41:02.881Z,102495.33
2019-03-27T10:43:28.693Z,102502.23
2019-03-27T10:45:54.466Z,102502.23
2019-03-27T10:48:20.267Z,102496.31
2019-03-27T10:50:46.110Z,102503.91
2019-03-27T10:53:11.895Z,102508.69
2019-03-27T10:55:37.997Z,102501.21
2019-03-27T10:58:03.849Z,102499.36
2019-03-27T11:00:29.637Z,102499.36
2019-03-27T11:02:55.415Z,102506.99
2019-03-27T11:05:21.218Z,102501.97
2019-03-27T11:07:47.057Z,102502.10
2019-03-27T11:10:12.936Z,102497.34
2019-03-27T11:12:38.767Z,102508.87
2019-03-27T11:15:08.046Z,102495.73
2019-03-27T11:17:33.837Z,102502.64
2019-03-27T11:19:59.636Z,102502.64
2019-03-27T11:22:25.427Z,102506.55
2019-03-27T11:24:51.230Z,102499.27
2019-03-27T11:27:17.018Z,102504.89
2019-03-27T11:29:42.813Z,102504.02
2019-03-27T11:32:08.603Z,102501.13
2019-03-27T11:34:34.391Z,102507.15
2019-03-27T11:37:00.179Z,102508.78
2019-03-27T11:39:25.963Z,102511.23
2019-03-27T11:41:51.737Z,102501.52
2019-03-27T11:44:17.535Z,102505.47
2019-03-27T11:46:43.320Z,102498.89
2019-03-27T11:49:09.099Z,102496.20
2019-03-27T11:51:34.912Z,102491.95
2019-03-27T11:54:00.714Z,102504.06
2019-03-27T11:56:26.470Z,102505.88
2019-03-27T11:58:52.253Z,102503.83
2019-03-27T12:01:18.059Z,102510.55
2019-03-27T12:03:43.818Z,102501.33
2019-03-27T12:06:09.624Z,102506.41
2019-03-27T12:08:35.405Z,102507.45
2019-03-27T12:11:01.200Z,102509.58
2019-03-27T12:13:27.002Z,102513.06
2019-03-27T12:15:52.803Z,102513.06
2019-03-27T12:18:18.581Z,102510.20
2019-03-27T12:20:57.766Z,102518.64
2019-03-27T12:23:12.384Z,102515.79
2019-03-27T12:25:39.002Z,102514.53
2019-03-27T12:28:04.796Z,102514.53
2019-03-27T12:30:30.573Z,102514.06
2019-03-27T12:32:56.383Z,102519.58
2019-03-27T12:35:22.159Z,102528.64
2019-03-27T12:37:47.953Z,102525.70
2019-03-27T12:40:13.740Z,102526.85
2019-03-27T12:42:39.532Z,102524.24
2019-03-27T12:45:05.425Z,102527.45
2019-03-27T12:47:31.219Z,102522.10
2019-03-27T12:49:57.009Z,102523.00
2019-03-27T12:52:22.806Z,102523.72
2019-03-27T12:54:48.584Z,102523.94
2019-03-27T12:57:14.376Z,102525.41
2019-03-27T12:59:40.164Z,102527.31
2019-03-27T13:02:06.073Z,102524.84
2019-03-27T13:04:31.853Z,102529.62
2019-03-27T13:06:57.659Z,102527.67
2019-03-27T13:09:23.429Z,102524.34
2019-03-27T13:11:49.225Z,102523.94
2019-03-27T13:14:15.010Z,102527.38
2019-03-27T13:16:40.792Z,102529.97
2019-03-27T13:19:06.587Z,102531.33
2019-03-27T13:21:32.374Z,102526.50
2019-03-27T13:23:58.179Z,102524.84
2019-03-27T13:26:23.962Z,102520.57
2019-03-27T13:28:49.754Z,102526.23
2019-03-27T13:31:15.530Z,102526.85
2019-03-27T13:33:41.318Z,102519.38
2019-03-27T13:36:07.307Z,102530.02
2019-03-27T13:38:33.107Z,102528.55
2019-03-27T13:40:58.887Z,102528.11
2019-03-27T13:43:24.678Z,102522.61
2019-03-27T13:45:50.467Z,102530.89
2019-03-27T13:48:16.268Z,102531.25
2019-03-27T13:50:42.049Z,102532.88
2019-03-27T13:53:07.844Z,102527.09
2019-03-27T13:55:35.235Z,102517.48
2019-03-27T13:58:01.230Z,102517.48
2019-03-27T14:00:27.020Z,102519.65
2019-03-27T14:02:52.799Z,102523.42
2019-03-27T14:05:18.597Z,102527.31
2019-03-27T14:07:44.370Z,102529.08
2019-03-27T14:10:10.376Z,102519.65
2019-03-27T14:12:36.157Z,102532.58
2019-03-27T14:15:04.951Z,102532.38
2019-03-27T14:17:30.736Z,102525.70
2019-03-27T14:19:56.523Z,102530.06
2019-03-27T14:22:22.326Z,102533.83
2019-03-27T14:24:48.128Z,102535.53
2019-03-27T14:27:13.903Z,102530.14
2019-03-27T14:29:39.701Z,102531.06
2019-03-27T14:32:05.484Z,102533.39
2019-03-27T14:34:31.296Z,102539.41
2019-03-27T14:36:57.113Z,102532.20
2019-03-27T14:39:22.999Z,102537.98
2019-03-27T14:41:48.789Z,102527.30
2019-03-27T14:44:14.606Z,102530.35
2019-03-27T14:46:40.382Z,102531.34
2019-03-27T14:49:06.164Z,102539.34
2019-03-27T14:51:31.956Z,102545.53
2019-03-27T14:53:57.744Z,102539.03
2019-03-27T14:56:23.565Z,102536.70
2019-03-27T14:58:49.358Z,102544.70
2019-03-27T15:01:15.141Z,102546.28
2019-03-27T15:03:40.919Z,102548.82
2019-03-27T15:06:06.726Z,102548.19
2019-03-27T15:08:32.499Z,102544.22
2019-03-27T15:10:58.288Z,102550.24
2019-03-27T15:13:24.076Z,102557.53
2019-03-27T15:15:49.879Z,102556.19
2019-03-27T15:18:15.656Z,102549.50
2019-03-27T15:20:41.443Z,102539.55
2019-03-27T15:23:07.245Z,102542.88
2019-03-27T15:25:33.033Z,102542.01
2019-03-27T15:27:58.818Z,102546.61
2019-03-27T15:30:24.769Z,102538.80
2019-03-27T15:32:50.565Z,102552.15
2019-03-27T15:35:16.372Z,102541.30
2019-03-27T15:37:42.153Z,102539.23
2019-03-27T15:40:08.047Z,102549.89
2019-03-27T15:42:33.921Z,102545.33
2019-03-27T15:44:59.827Z,102540.73
2019-03-27T15:47:25.577Z,102552.78
2019-03-27T15:49:51.363Z,102552.34
2019-03-27T15:52:17.163Z,102545.53
2019-03-27T15:54:42.951Z,102547.16
2019-03-27T15:57:08.749Z,102548.11
2019-03-27T15:59:34.529Z,102548.11
2019-03-27T16:02:00.323Z,102553.61
2019-03-27T16:04:26.105Z,102551.98
2019-03-27T16:06:51.974Z,102550.72
2019-03-27T16:09:18.772Z,102546.76
2019-03-27T16:11:44.575Z,102554.97
2019-03-27T16:14:10.447Z,102547.31
2019-03-27T16:16:36.244Z,102545.69
2019-03-27T16:19:02.023Z,102551.52
2019-03-27T16:21:27.815Z,102550.72
2019-03-27T16:24:05.897Z,102548.66
2019-03-27T16:26:21.309Z,102551.08
2019-03-27T16:28:47.123Z,102550.02
2019-03-27T16:31:12.898Z,102549.61
2019-03-27T16:33:38.713Z,102551.31
2019-03-27T16:36:04.498Z,102548.19
2019-03-27T16:38:30.291Z,102551.08
2019-03-27T16:40:56.070Z,102550.33
2019-03-27T16:43:21.870Z,102548.39
2019-03-27T16:45:48.146Z,102548.66
2019-03-27T16:48:13.944Z,102551.00
2019-03-27T16:50:39.726Z,102560.43
2019-03-27T16:53:05.518Z,102554.36
2019-03-27T16:55:31.316Z,102556.70
2019-03-27T16:57:57.112Z,102556.70
2019-03-27T17:00:22.887Z,102560.78
2019-03-27T17:02:48.686Z,102563.44
2019-03-27T17:05:15.945Z,102563.80
2019-03-27T17:07:41.856Z,102562.45
2019-03-27T17:10:07.954Z,102566.45
2019-03-27T17:12:33.741Z,102564.59
2019-03-27T17:14:59.522Z,102574.81
2019-03-27T17:17:25.311Z,102573.66
2019-03-27T17:19:51.097Z,102565.89
2019-03-27T17:22:19.679Z,102570.25
2019-03-27T17:24:44.594Z,102570.06
2019-03-27T17:27:10.491Z,102574.26
2019-03-27T17:29:36.396Z,102574.94
2019-03-27T17:32:02.192Z,102576.55
2019-03-27T17:34:27.997Z,102579.95
2019-03-27T17:36:53.769Z,102582.34
2019-03-27T17:39:19.569Z,102578.41
2019-03-27T17:41:45.355Z,102577.07
2019-03-27T17:44:11.159Z,102580.75
2019-03-27T17:46:36.938Z,102576.44
2019-03-27T17:49:02.829Z,102586.01
2019-03-27T17:51:28.620Z,102578.34
2019-03-27T17:53:54.407Z,102587.71
2019-03-27T17:56:20.207Z,102590.45
2019-03-27T17:58:46.004Z,102590.25
2019-03-27T18:01:11.788Z,102591.23
2019-03-27T18:03:37.619Z,102597.33
2019-03-27T18:06:03.504Z,102598.91
2019-03-27T18:08:29.276Z,102599.03
2019-03-27T18:10:55.078Z,102598.05
2019-03-27T18:13:20.858Z,102606.07
2019-03-27T18:15:46.646Z,102602.03
2019-03-27T18:18:12.433Z,102608.09
2019-03-27T18:20:38.247Z,102613.08
2019-03-27T18:23:04.139Z,102613.08
2019-03-27T18:25:29.930Z,102607.60
2019-03-27T18:27:58.364Z,102613.70
2019-03-27T18:30:23.393Z,102617.89
2019-03-27T18:32:49.186Z,102614.06
2019-03-27T18:35:14.989Z,102619.56
2019-03-27T18:37:40.774Z,102621.64
2019-03-27T18:40:06.907Z,102618.38
2019-03-27T18:42:32.786Z,102617.66
2019-03-27T18:44:58.631Z,102624.95
2019-03-27T18:47:24.411Z,102626.30
2019-03-27T18:49:50.402Z,102625.02
2019-03-27T18:52:16.198Z,102624.03
2019-03-27T18:54:41.980Z,102614.81
2019-03-27T18:57:07.774Z,102616.73
2019-03-27T18:59:33.556Z,102618.50
2019-03-27T19:01:59.347Z,102621.45
2019-03-27T19:04:25.345Z,102625.49
2019-03-27T19:06:51.145Z,102620.68
2019-03-27T19:09:16.918Z,102634.91
2019-03-27T19:11:42.711Z,102635.55
2019-03-27T19:14:08.492Z,102636.23
2019-03-27T19:16:34.284Z,102637.25
2019-03-27T19:19:00.062Z,102639.52
2019-03-27T19:21:25.853Z,102643.31
2019-03-27T19:23:53.136Z,102636.68
2019-03-27T19:26:18.936Z,102648.31
2019-03-27T19:28:44.716Z,102638.53
2019-03-27T19:31:10.508Z,102639.02
2019-03-27T19:33:36.288Z,102645.89
2019-03-27T19:36:02.193Z,102640.77
2019-03-27T19:38:27.997Z,102645.73
2019-03-27T19:40:53.744Z,102649.30
2019-03-27T19:43:19.539Z,102646.06
2019-03-27T19:45:45.420Z,102644.55
2019-03-27T19:48:11.211Z,102648.48
2019-03-27T19:50:37.008Z,102636.28
2019-03-27T19:53:02.901Z,102636.28
2019-03-27T19:55:28.680Z,102642.17
2019-03-27T19:57:54.467Z,102637.98
2019-03-27T20:00:21.564Z,102638.34
2019-03-27T20:02:47.378Z,102638.34
2019-03-27T20:05:13.151Z,102638.05
2019-03-27T20:07:38.944Z,102644.09
2019-03-27T20:10:05.724Z,102644.72
2019-03-27T20:12:31.521Z,102647.56
2019-03-27T20:15:10.849Z,102641.60
2019-03-27T20:17:25.594Z,102648.33
2019-03-27T20:19:51.373Z,102652.37
2019-03-27T20:22:17.178Z,102645.28
2019-03-27T20:24:42.971Z,102650.87
2019-03-27T20:27:09.269Z,102650.87
2019-03-27T20:29:35.131Z,102647.70
2019-03-27T20:32:01.237Z,102651.64
2019-03-27T20:34:27.326Z,102649.05
2019-03-27T20:36:53.322Z,102657.03
2019-03-27T20:39:19.128Z,102661.42
2019-03-27T20:41:45.087Z,102655.73
2019-03-27T20:44:11.080Z,102664.12
2019-03-27T20:46:37.239Z,102662.67
2019-03-27T20:49:03.356Z,102663.49
2019-03-27T20:51:29.141Z,102654.81
2019-03-27T20:53:54.934Z,102657.66
2019-03-27T20:56:20.944Z,102661.42
2019-03-27T20:58:46.933Z,102657.59
2019-03-27T21:01:12.844Z,102646.27
2019-03-27T21:03:40.226Z,102646.27
2019-03-27T21:06:06.006Z,102657.17
2019-03-27T21:08:31.882Z,102661.21
2019-03-27T21:10:57.659Z,102659.36
2019-03-27T21:13:23.445Z,102657.03
2019-03-27T21:15:49.232Z,102659.09
2019-03-27T21:18:15.013Z,102663.13
2019-03-27T21:20:40.808Z,102662.41
2019-03-27T21:23:06.652Z,102668.62
2019-03-27T21:25:32.448Z,102667.17
2019-03-27T21:27:58.231Z,102664.59
2019-03-27T21:30:24.032Z,102665.73
2019-03-27T21:32:49.823Z,102661.55
2019-03-27T21:35:15.612Z,102662.77
2019-03-27T21:37:41.396Z,102661.21
2019-03-27T21:40:07.493Z,102660.97
2019-03-27T21:42:33.270Z,102667.37
2019-03-27T21:44:59.073Z,102671.32
2019-03-27T21:47:24.899Z,102677.84
2019-03-27T21:49:50.764Z,102673.44
2019-03-27T21:52:16.607Z,102674.88
2019-03-27T21:54:42.531Z,102670.02
2019-03-27T21:57:08.560Z,102677.94
2019-03-27T21:59:34.686Z,102681.34
2019-03-27T22:02:02.740Z,102684.36
2019-03-27T22:04:28.538Z,102683.63
2019-03-27T22:06:54.389Z,102686.37
2019-03-27T22:09:20.583Z,102685.95
2019-03-27T22:11:46.367Z,102688.07
2019-03-27T22:14:12.160Z,102693.00
2019-03-27T22:16:37.943Z,102688.60
2019-03-27T22:19:04.017Z,102695.73
2019-03-27T22:21:30.057Z,102695.83
2019-03-27T22:23:55.867Z,102696.88
2019-03-27T22:26:21.895Z,102695.48
2019-03-27T22:28:50.756Z,102698.02
2019-03-27T22:31:16.679Z,102693.56
2019-03-27T22:33:42.457Z,102695.11
2019-03-27T22:36:08.254Z,102700.49
2019-03-27T22:38:34.675Z,102697.92
2019-03-27T22:41:00.794Z,102705.25
2019-03-27T22:43:28.026Z,102705.98
2019-03-27T22:45:53.958Z,102706.97
2019-03-27T22:48:19.891Z,102711.52
2019-03-27T22:50:45.655Z,102703.95
2019-03-27T22:53:11.446Z,102708.11
2019-03-27T22:55:49.000Z,102710.58
2019-03-27T22:58:04.978Z,102706.64
2019-03-27T23:00:44.695Z,102703.59
2019-03-27T23:03:18.046Z,102703.66
2019-03-27T23:05:38.290Z,102708.42
2019-03-27T23:08:04.065Z,102708.56
2019-03-27T23:10:29.854Z,102709.66
2019-03-27T23:12:55.707Z,102717.73
2019-03-27T23:15:21.481Z,102719.08
2019-03-27T23:17:47.280Z,102713.37
2019-03-27T23:20:13.165Z,102712.97
2019-03-27T23:22:38.971Z,102720.74
2019-03-27T23:25:05.062Z,102719.33
2019-03-27T23:27:30.851Z,102723.44
2019-03-27T23:29:56.631Z,102728.70
2019-03-27T23:32:22.419Z,102739.68
2019-03-27T23:34:48.206Z,102731.20
2019-03-27T23:37:14.054Z,102730.52
2019-03-27T23:39:39.830Z,102731.18
2019-03-27T23:42:05.619Z,102732.53
2019-03-27T23:44:31.403Z,102733.26
2019-03-27T23:46:57.208Z,102735.59
2019-03-27T23:49:22.986Z,102744.64
2019-03-27T23:51:48.781Z,102746.81
2019-03-27T23:54:14.554Z,102736.56
2019-03-27T23:56:40.379Z,102737.03
2019-03-27T23:59:06.155Z,102742.27
